sensor_id;sensor_type;location;lat;lon;timestamp;pressure;altitude;pressure_sealevel;temperature;humidity
69198;BME280;56311;50.298;8.514;2023-06-05T00:00:00;98070.0;;;10.7;68.8
69198;BME280;56311;50.298;8.514;2023-06-05T00:02:00;98070.0;;;10.8;68.0
69198;BME280;56311;50.298;8.514;2023-06-05T00:04:00;98070.0;;;10.8;67.6
69198;BME280;56311;50.298;8.514;2023-06-05T00:06:00;98070.0;;;10.8;67.9
69198;BME280;56311;50.298;8.514;2023-06-05T00:08:00;98070.0;;;10.8;68.8
69198;BME280;56311;50.298;8.514;2023-06-05T00:10:00;98070.0;;;10.7;68.5
69198;BME280;56311;50.298;8.514;2023-06-05T00:12:00;98070.0;;;10.7;68.9
69198;BME280;56311;50.298;8.514;2023-06-05T00:14:00;98070.0;;;10.6;69.5
69198;BME280;56311;50.298;8.514;2023-06-05T00:16:00;98070.0;;;10.6;70.1
69198;BME280;56311;50.298;8.514;2023-06-05T00:18:00;98070.0;;;10.6;70.1
69198;BME280;56311;50.298;8.514;2023-06-05T00:20:00;98070.0;;;10.6;68.5
69198;BME280;56311;50.298;8.514;2023-06-05T00:22:00;98070.0;;;10.5;69.1
69198;BME280;56311;50.298;8.514;2023-06-05T00:24:00;98070.0;;;10.5;70.3
69198;BME280;56311;50.298;8.514;2023-06-05T00:26:00;98070.0;;;10.4;69.4
69198;BME280;56311;50.298;8.514;2023-06-05T00:28:00;98070.0;;;10.4;70.7
69198;BME280;56311;50.298;8.514;2023-06-05T00:30:00;98070.0;;;10.4;69.8
69198;BME280;56311;50.298;8.514;2023-06-05T00:32:00;98070.0;;;10.3;69.5
69198;BME280;56311;50.298;8.514;2023-06-05T00:34:00;98070.0;;;10.2;69.9
69198;BME280;56311;50.298;8.514;2023-06-05T00:36:00;98060.0;;;10.3;70.2
69198;BME280;56311;50.298;8.514;2023-06-05T00:38:00;98070.0;;;10.2;70.6
69198;BME280;56311;50.298;8.514;2023-06-05T00:40:00;98070.0;;;10.2;70.5
69198;BME280;56311;50.298;8.514;2023-06-05T00:42:00;98060.0;;;10.2;70.4
69198;BME280;56311;50.298;8.514;2023-06-05T00:44:00;98070.0;;;10.2;70.8
69198;BME280;56311;50.298;8.514;2023-06-05T00:46:02;98070.0;;;10.2;71.1
69198;BME280;56311;50.298;8.514;2023-06-05T00:48:00;98060.0;;;10.2;71.4
69198;BME280;56311;50.298;8.514;2023-06-05T00:50:00;98060.0;;;10.1;71.8
69198;BME280;56311;50.298;8.514;2023-06-05T00:52:00;98070.0;;;10.1;71.5
69198;BME280;56311;50.298;8.514;2023-06-05T00:54:00;98060.0;;;10.1;72.1
69198;BME280;56311;50.298;8.514;2023-06-05T00:56:00;98070.0;;;10.1;70.3
69198;BME280;56311;50.298;8.514;2023-06-05T00:58:00;98060.0;;;10.0;71.9
69198;BME280;56311;50.298;8.514;2023-06-05T01:00:00;98060.0;;;10.0;71.3
69198;BME280;56311;50.298;8.514;2023-06-05T01:02:00;98060.0;;;9.9;73.0
69198;BME280;56311;50.298;8.514;2023-06-05T01:04:00;98060.0;;;9.9;73.5
69198;BME280;56311;50.298;8.514;2023-06-05T01:06:00;98060.0;;;9.9;72.6
69198;BME280;56311;50.298;8.514;2023-06-05T01:08:00;98060.0;;;9.8;73.3
69198;BME280;56311;50.298;8.514;2023-06-05T01:10:00;98060.0;;;9.8;73.3
69198;BME280;56311;50.298;8.514;2023-06-05T01:12:05;98060.0;;;9.7;73.3
69198;BME280;56311;50.298;8.514;2023-06-05T01:14:08;98060.0;;;9.7;72.5
69198;BME280;56311;50.298;8.514;2023-06-05T01:16:00;98060.0;;;9.7;72.3
69198;BME280;56311;50.298;8.514;2023-06-05T01:18:01;98060.0;;;9.8;71.9
69198;BME280;56311;50.298;8.514;2023-06-05T01:20:01;98050.0;;;9.8;70.0
69198;BME280;56311;50.298;8.514;2023-06-05T01:22:01;98050.0;;;9.8;68.6
69198;BME280;56311;50.298;8.514;2023-06-05T01:24:00;98060.0;;;9.8;70.3
69198;BME280;56311;50.298;8.514;2023-06-05T01:26:02;98050.0;;;9.8;69.9
69198;BME280;56311;50.298;8.514;2023-06-05T01:28:05;98050.0;;;9.8;69.8
69198;BME280;56311;50.298;8.514;2023-06-05T01:30:03;98050.0;;;9.8;71.0
69198;BME280;56311;50.298;8.514;2023-06-05T01:32:05;98050.0;;;9.7;69.4
69198;BME280;56311;50.298;8.514;2023-06-05T01:34:02;98050.0;;;9.8;70.2
69198;BME280;56311;50.298;8.514;2023-06-05T01:36:01;98040.0;;;9.8;71.1
69198;BME280;56311;50.298;8.514;2023-06-05T01:38:02;98040.0;;;9.8;69.4
69198;BME280;56311;50.298;8.514;2023-06-05T01:40:01;98050.0;;;9.8;70.9
69198;BME280;56311;50.298;8.514;2023-06-05T01:42:01;98040.0;;;9.8;70.7
69198;BME280;56311;50.298;8.514;2023-06-05T01:44:01;98040.0;;;9.7;71.0
69198;BME280;56311;50.298;8.514;2023-06-05T01:46:00;98040.0;;;9.7;71.9
69198;BME280;56311;50.298;8.514;2023-06-05T01:48:00;98040.0;;;9.7;70.9
69198;BME280;56311;50.298;8.514;2023-06-05T01:50:00;98040.0;;;9.6;70.3
69198;BME280;56311;50.298;8.514;2023-06-05T01:52:00;98040.0;;;9.6;70.9
69198;BME280;56311;50.298;8.514;2023-06-05T01:54:00;98040.0;;;9.6;72.2
69198;BME280;56311;50.298;8.514;2023-06-05T01:56:00;98040.0;;;9.6;71.5
69198;BME280;56311;50.298;8.514;2023-06-05T01:58:00;98040.0;;;9.5;72.5
69198;BME280;56311;50.298;8.514;2023-06-05T02:00:00;98040.0;;;9.5;73.2
69198;BME280;56311;50.298;8.514;2023-06-05T02:02:00;98040.0;;;9.5;74.1
69198;BME280;56311;50.298;8.514;2023-06-05T02:04:00;98030.0;;;9.4;71.0
69198;BME280;56311;50.298;8.514;2023-06-05T02:06:00;98030.0;;;9.4;73.9
69198;BME280;56311;50.298;8.514;2023-06-05T02:08:01;98030.0;;;9.3;73.4
69198;BME280;56311;50.298;8.514;2023-06-05T02:10:00;98030.0;;;9.3;74.2
69198;BME280;56311;50.298;8.514;2023-06-05T02:12:00;98030.0;;;9.3;74.2
69198;BME280;56311;50.298;8.514;2023-06-05T02:14:00;98020.0;;;9.3;74.4
69198;BME280;56311;50.298;8.514;2023-06-05T02:16:00;98020.0;;;9.2;73.9
69198;BME280;56311;50.298;8.514;2023-06-05T02:18:00;98020.0;;;9.2;74.2
69198;BME280;56311;50.298;8.514;2023-06-05T02:20:00;98020.0;;;9.2;74.3
69198;BME280;56311;50.298;8.514;2023-06-05T02:22:00;98030.0;;;9.2;74.5
69198;BME280;56311;50.298;8.514;2023-06-05T02:24:00;98030.0;;;9.1;74.7
69198;BME280;56311;50.298;8.514;2023-06-05T02:26:00;98020.0;;;9.1;74.4
69198;BME280;56311;50.298;8.514;2023-06-05T02:28:00;98030.0;;;9.1;75.6
69198;BME280;56311;50.298;8.514;2023-06-05T02:30:00;98030.0;;;9.1;75.2
69198;BME280;56311;50.298;8.514;2023-06-05T02:32:00;98030.0;;;9.0;76.9
69198;BME280;56311;50.298;8.514;2023-06-05T02:34:00;98020.0;;;9.0;76.3
69198;BME280;56311;50.298;8.514;2023-06-05T02:36:00;98020.0;;;9.0;75.1
69198;BME280;56311;50.298;8.514;2023-06-05T02:38:00;98020.0;;;9.0;76.2
69198;BME280;56311;50.298;8.514;2023-06-05T02:40:00;98020.0;;;9.0;76.8
69198;BME280;56311;50.298;8.514;2023-06-05T02:42:00;98020.0;;;8.9;77.0
69198;BME280;56311;50.298;8.514;2023-06-05T02:44:01;98030.0;;;8.9;77.0
69198;BME280;56311;50.298;8.514;2023-06-05T02:46:00;98020.0;;;8.9;77.7
69198;BME280;56311;50.298;8.514;2023-06-05T02:48:00;98020.0;;;8.8;79.4
69198;BME280;56311;50.298;8.514;2023-06-05T02:50:00;98030.0;;;8.8;79.9
69198;BME280;56311;50.298;8.514;2023-06-05T02:52:00;98020.0;;;8.7;78.9
69198;BME280;56311;50.298;8.514;2023-06-05T02:54:00;98020.0;;;8.7;78.8
69198;BME280;56311;50.298;8.514;2023-06-05T02:56:00;98020.0;;;8.7;79.6
69198;BME280;56311;50.298;8.514;2023-06-05T02:58:00;98020.0;;;8.7;79.5
69198;BME280;56311;50.298;8.514;2023-06-05T03:00:00;98020.0;;;8.7;79.3
69198;BME280;56311;50.298;8.514;2023-06-05T03:02:00;98020.0;;;8.7;79.1
69198;BME280;56311;50.298;8.514;2023-06-05T03:04:00;98020.0;;;8.7;78.7
69198;BME280;56311;50.298;8.514;2023-06-05T03:06:01;98020.0;;;8.7;79.7
69198;BME280;56311;50.298;8.514;2023-06-05T03:08:00;98010.0;;;8.7;78.9
69198;BME280;56311;50.298;8.514;2023-06-05T03:10:00;98020.0;;;8.6;79.4
69198;BME280;56311;50.298;8.514;2023-06-05T03:12:00;98020.0;;;8.6;78.4
69198;BME280;56311;50.298;8.514;2023-06-05T03:14:00;98020.0;;;8.5;78.9
69198;BME280;56311;50.298;8.514;2023-06-05T03:16:00;98010.0;;;8.5;80.9
69198;BME280;56311;50.298;8.514;2023-06-05T03:18:00;98020.0;;;8.5;80.7
69198;BME280;56311;50.298;8.514;2023-06-05T03:20:00;98010.0;;;8.5;81.2
69198;BME280;56311;50.298;8.514;2023-06-05T03:22:00;98010.0;;;8.4;80.8
69198;BME280;56311;50.298;8.514;2023-06-05T03:24:00;98010.0;;;8.4;81.1
69198;BME280;56311;50.298;8.514;2023-06-05T03:26:00;98010.0;;;8.4;81.3
69198;BME280;56311;50.298;8.514;2023-06-05T03:28:00;98010.0;;;8.4;82.6
69198;BME280;56311;50.298;8.514;2023-06-05T03:30:00;98010.0;;;8.4;81.4
69198;BME280;56311;50.298;8.514;2023-06-05T03:32:00;98020.0;;;8.4;80.7
69198;BME280;56311;50.298;8.514;2023-06-05T03:34:00;98010.0;;;8.4;81.6
69198;BME280;56311;50.298;8.514;2023-06-05T03:36:00;98010.0;;;8.4;80.5
69198;BME280;56311;50.298;8.514;2023-06-05T03:38:00;98020.0;;;8.4;81.8
69198;BME280;56311;50.298;8.514;2023-06-05T03:40:00;98010.0;;;8.5;80.2
69198;BME280;56311;50.298;8.514;2023-06-05T03:42:00;98020.0;;;8.6;80.3
69198;BME280;56311;50.298;8.514;2023-06-05T03:44:00;98020.0;;;8.6;78.5
69198;BME280;56311;50.298;8.514;2023-06-05T03:46:00;98020.0;;;8.6;77.7
69198;BME280;56311;50.298;8.514;2023-06-05T03:48:00;98020.0;;;8.7;79.2
69198;BME280;56311;50.298;8.514;2023-06-05T03:50:00;98020.0;;;8.7;80.3
69198;BME280;56311;50.298;8.514;2023-06-05T03:52:00;98020.0;;;8.6;78.7
69198;BME280;56311;50.298;8.514;2023-06-05T03:54:00;98020.0;;;8.7;78.4
69198;BME280;56311;50.298;8.514;2023-06-05T03:56:00;98010.0;;;8.6;80.4
69198;BME280;56311;50.298;8.514;2023-06-05T03:58:00;98020.0;;;8.6;81.1
69198;BME280;56311;50.298;8.514;2023-06-05T04:00:00;98020.0;;;8.7;80.8
69198;BME280;56311;50.298;8.514;2023-06-05T04:02:00;98020.0;;;8.8;79.5
69198;BME280;56311;50.298;8.514;2023-06-05T04:04:00;98020.0;;;8.9;74.6
69198;BME280;56311;50.298;8.514;2023-06-05T04:06:00;98030.0;;;9.1;76.8
69198;BME280;56311;50.298;8.514;2023-06-05T04:08:00;98020.0;;;9.1;76.7
69198;BME280;56311;50.298;8.514;2023-06-05T04:10:00;98020.0;;;9.2;77.4
69198;BME280;56311;50.298;8.514;2023-06-05T04:12:00;98020.0;;;9.2;79.0
69198;BME280;56311;50.298;8.514;2023-06-05T04:14:00;98030.0;;;9.2;76.6
69198;BME280;56311;50.298;8.514;2023-06-05T04:16:00;98030.0;;;9.3;76.9
69198;BME280;56311;50.298;8.514;2023-06-05T04:18:00;98030.0;;;9.3;77.0
69198;BME280;56311;50.298;8.514;2023-06-05T04:20:00;98030.0;;;9.4;76.5
69198;BME280;56311;50.298;8.514;2023-06-05T04:22:00;98030.0;;;9.4;77.2
69198;BME280;56311;50.298;8.514;2023-06-05T04:24:00;98030.0;;;9.4;78.2
69198;BME280;56311;50.298;8.514;2023-06-05T04:26:00;98030.0;;;9.5;78.5
69198;BME280;56311;50.298;8.514;2023-06-05T04:28:00;98030.0;;;9.6;80.0
69198;BME280;56311;50.298;8.514;2023-06-05T04:30:00;98030.0;;;9.7;76.5
69198;BME280;56311;50.298;8.514;2023-06-05T04:32:00;98030.0;;;9.7;79.6
69198;BME280;56311;50.298;8.514;2023-06-05T04:34:00;98030.0;;;9.7;78.1
69198;BME280;56311;50.298;8.514;2023-06-05T04:36:00;98040.0;;;9.8;75.6
69198;BME280;56311;50.298;8.514;2023-06-05T04:38:00;98040.0;;;9.9;75.3
69198;BME280;56311;50.298;8.514;2023-06-05T04:40:00;98030.0;;;10.0;76.8
69198;BME280;56311;50.298;8.514;2023-06-05T04:42:00;98030.0;;;10.1;76.8
69198;BME280;56311;50.298;8.514;2023-06-05T04:44:00;98030.0;;;10.2;75.9
69198;BME280;56311;50.298;8.514;2023-06-05T04:46:00;98030.0;;;10.3;74.2
69198;BME280;56311;50.298;8.514;2023-06-05T04:48:00;98030.0;;;10.4;77.0
69198;BME280;56311;50.298;8.514;2023-06-05T04:50:01;98020.0;;;10.4;75.9
69198;BME280;56311;50.298;8.514;2023-06-05T04:52:00;98020.0;;;10.5;77.0
69198;BME280;56311;50.298;8.514;2023-06-05T04:54:00;98020.0;;;10.6;75.3
69198;BME280;56311;50.298;8.514;2023-06-05T04:56:00;98020.0;;;10.7;76.4
69198;BME280;56311;50.298;8.514;2023-06-05T04:58:00;98030.0;;;10.8;76.0
69198;BME280;56311;50.298;8.514;2023-06-05T05:00:00;98030.0;;;10.9;75.4
69198;BME280;56311;50.298;8.514;2023-06-05T05:02:00;98030.0;;;11.1;75.8
69198;BME280;56311;50.298;8.514;2023-06-05T05:04:00;98030.0;;;11.1;77.1
69198;BME280;56311;50.298;8.514;2023-06-05T05:06:00;98030.0;;;11.2;76.3
69198;BME280;56311;50.298;8.514;2023-06-05T05:08:00;98030.0;;;11.3;75.6
69198;BME280;56311;50.298;8.514;2023-06-05T05:10:00;98030.0;;;11.5;73.5
69198;BME280;56311;50.298;8.514;2023-06-05T05:12:00;98030.0;;;11.6;75.0
69198;BME280;56311;50.298;8.514;2023-06-05T05:14:00;98030.0;;;11.7;75.2
69198;BME280;56311;50.298;8.514;2023-06-05T05:16:00;98030.0;;;11.8;72.3
69198;BME280;56311;50.298;8.514;2023-06-05T05:18:00;98040.0;;;11.9;73.3
69198;BME280;56311;50.298;8.514;2023-06-05T05:20:00;98040.0;;;12.1;67.7
69198;BME280;56311;50.298;8.514;2023-06-05T05:22:00;98030.0;;;12.2;64.6
69198;BME280;56311;50.298;8.514;2023-06-05T05:24:00;98040.0;;;12.4;63.9
69198;BME280;56311;50.298;8.514;2023-06-05T05:26:00;98030.0;;;12.5;60.2
69198;BME280;56311;50.298;8.514;2023-06-05T05:28:00;98030.0;;;12.6;62.4
69198;BME280;56311;50.298;8.514;2023-06-05T05:30:00;98030.0;;;12.8;64.6
69198;BME280;56311;50.298;8.514;2023-06-05T05:32:00;98030.0;;;12.8;62.0
69198;BME280;56311;50.298;8.514;2023-06-05T05:34:00;98030.0;;;13.0;62.4
69198;BME280;56311;50.298;8.514;2023-06-05T05:36:00;98030.0;;;13.1;60.7
69198;BME280;56311;50.298;8.514;2023-06-05T05:38:00;98020.0;;;13.2;58.8
69198;BME280;56311;50.298;8.514;2023-06-05T05:40:00;98030.0;;;13.2;56.5
69198;BME280;56311;50.298;8.514;2023-06-05T05:42:00;98030.0;;;13.4;56.5
69198;BME280;56311;50.298;8.514;2023-06-05T05:44:00;98040.0;;;13.5;57.1
69198;BME280;56311;50.298;8.514;2023-06-05T05:46:00;98040.0;;;13.6;57.8
69198;BME280;56311;50.298;8.514;2023-06-05T05:48:00;98030.0;;;13.6;56.6
69198;BME280;56311;50.298;8.514;2023-06-05T05:50:00;98040.0;;;13.7;54.8
69198;BME280;56311;50.298;8.514;2023-06-05T05:52:00;98040.0;;;13.8;54.7
69198;BME280;56311;50.298;8.514;2023-06-05T05:54:00;98040.0;;;13.9;53.6
69198;BME280;56311;50.298;8.514;2023-06-05T05:56:00;98040.0;;;14.0;55.9
69198;BME280;56311;50.298;8.514;2023-06-05T05:58:00;98040.0;;;14.0;53.8
69198;BME280;56311;50.298;8.514;2023-06-05T06:00:00;98040.0;;;14.1;54.1
69198;BME280;56311;50.298;8.514;2023-06-05T06:02:00;98040.0;;;14.2;54.1
69198;BME280;56311;50.298;8.514;2023-06-05T06:04:00;98040.0;;;14.3;53.3
69198;BME280;56311;50.298;8.514;2023-06-05T06:06:00;98050.0;;;14.4;52.6
69198;BME280;56311;50.298;8.514;2023-06-05T06:08:01;98040.0;;;14.5;52.9
69198;BME280;56311;50.298;8.514;2023-06-05T06:10:00;98040.0;;;14.6;50.8
69198;BME280;56311;50.298;8.514;2023-06-05T06:12:00;98040.0;;;14.7;51.9
69198;BME280;56311;50.298;8.514;2023-06-05T06:14:00;98040.0;;;14.8;51.7
69198;BME280;56311;50.298;8.514;2023-06-05T06:16:00;98040.0;;;14.9;52.4
69198;BME280;56311;50.298;8.514;2023-06-05T06:18:00;98040.0;;;15.0;51.3
69198;BME280;56311;50.298;8.514;2023-06-05T06:20:00;98040.0;;;15.0;53.0
69198;BME280;56311;50.298;8.514;2023-06-05T06:22:00;98040.0;;;15.1;49.6
69198;BME280;56311;50.298;8.514;2023-06-05T06:24:00;98040.0;;;15.2;50.7
69198;BME280;56311;50.298;8.514;2023-06-05T06:26:00;98040.0;;;15.1;51.1
69198;BME280;56311;50.298;8.514;2023-06-05T06:28:00;98040.0;;;15.1;51.2
69198;BME280;56311;50.298;8.514;2023-06-05T06:30:00;98050.0;;;15.0;50.9
69198;BME280;56311;50.298;8.514;2023-06-05T06:32:00;98050.0;;;14.9;51.6
69198;BME280;56311;50.298;8.514;2023-06-05T06:34:00;98050.0;;;15.0;52.3
69198;BME280;56311;50.298;8.514;2023-06-05T06:36:00;98050.0;;;15.2;51.5
69198;BME280;56311;50.298;8.514;2023-06-05T06:38:00;98050.0;;;15.3;51.4
69198;BME280;56311;50.298;8.514;2023-06-05T06:40:00;98050.0;;;15.4;52.6
69198;BME280;56311;50.298;8.514;2023-06-05T06:42:00;98050.0;;;15.6;50.1
69198;BME280;56311;50.298;8.514;2023-06-05T06:44:00;98050.0;;;15.7;49.5
69198;BME280;56311;50.298;8.514;2023-06-05T06:46:00;98050.0;;;15.8;50.0
69198;BME280;56311;50.298;8.514;2023-06-05T06:48:00;98050.0;;;15.9;49.1
69198;BME280;56311;50.298;8.514;2023-06-05T06:50:00;98050.0;;;15.8;48.7
69198;BME280;56311;50.298;8.514;2023-06-05T06:52:00;98050.0;;;15.8;49.7
69198;BME280;56311;50.298;8.514;2023-06-05T06:54:00;98050.0;;;15.9;50.1
69198;BME280;56311;50.298;8.514;2023-06-05T06:56:00;98060.0;;;16.1;51.1
69198;BME280;56311;50.298;8.514;2023-06-05T06:58:00;98060.0;;;16.1;49.6
69198;BME280;56311;50.298;8.514;2023-06-05T07:00:00;98060.0;;;16.2;50.8
69198;BME280;56311;50.298;8.514;2023-06-05T07:02:09;98060.0;;;16.3;49.3
69198;BME280;56311;50.298;8.514;2023-06-05T07:04:00;98060.0;;;16.5;49.9
69198;BME280;56311;50.298;8.514;2023-06-05T07:06:00;98050.0;;;16.7;49.2
69198;BME280;56311;50.298;8.514;2023-06-05T07:08:00;98050.0;;;16.8;48.1
69198;BME280;56311;50.298;8.514;2023-06-05T07:10:00;98050.0;;;17.0;47.4
69198;BME280;56311;50.298;8.514;2023-06-05T07:12:00;98050.0;;;17.0;46.8
69198;BME280;56311;50.298;8.514;2023-06-05T07:14:00;98060.0;;;17.1;45.5
69198;BME280;56311;50.298;8.514;2023-06-05T07:16:00;98050.0;;;17.1;46.4
69198;BME280;56311;50.298;8.514;2023-06-05T07:18:00;98050.0;;;17.1;47.1
69198;BME280;56311;50.298;8.514;2023-06-05T07:20:00;98050.0;;;17.4;46.1
69198;BME280;56311;50.298;8.514;2023-06-05T07:22:01;98050.0;;;17.3;45.3
69198;BME280;56311;50.298;8.514;2023-06-05T07:24:00;98050.0;;;17.3;46.2
69198;BME280;56311;50.298;8.514;2023-06-05T07:26:00;98050.0;;;17.3;46.0
69198;BME280;56311;50.298;8.514;2023-06-05T07:28:00;98050.0;;;17.5;46.1
69198;BME280;56311;50.298;8.514;2023-06-05T07:30:00;98040.0;;;17.8;45.5
69198;BME280;56311;50.298;8.514;2023-06-05T07:32:00;98040.0;;;17.8;44.4
69198;BME280;56311;50.298;8.514;2023-06-05T07:34:00;98040.0;;;18.0;44.3
69198;BME280;56311;50.298;8.514;2023-06-05T07:36:00;98040.0;;;18.2;45.8
69198;BME280;56311;50.298;8.514;2023-06-05T07:38:00;98040.0;;;18.3;44.7
69198;BME280;56311;50.298;8.514;2023-06-05T07:40:00;98040.0;;;18.4;43.3
69198;BME280;56311;50.298;8.514;2023-06-05T07:42:02;98040.0;;;18.2;42.8
69198;BME280;56311;50.298;8.514;2023-06-05T07:44:00;98040.0;;;18.5;44.5
69198;BME280;56311;50.298;8.514;2023-06-05T07:46:00;98040.0;;;18.5;43.5
69198;BME280;56311;50.298;8.514;2023-06-05T07:48:00;98040.0;;;18.6;43.8
69198;BME280;56311;50.298;8.514;2023-06-05T07:50:02;98030.0;;;18.6;45.3
69198;BME280;56311;50.298;8.514;2023-06-05T07:52:02;98040.0;;;18.7;44.6
69198;BME280;56311;50.298;8.514;2023-06-05T07:54:00;98040.0;;;18.9;44.5
69198;BME280;56311;50.298;8.514;2023-06-05T07:56:00;98030.0;;;19.0;44.2
69198;BME280;56311;50.298;8.514;2023-06-05T07:58:00;98040.0;;;19.1;44.4
69198;BME280;56311;50.298;8.514;2023-06-05T08:00:00;98040.0;;;19.4;43.8
69198;BME280;56311;50.298;8.514;2023-06-05T08:02:00;98040.0;;;19.5;43.1
69198;BME280;56311;50.298;8.514;2023-06-05T08:04:00;98040.0;;;19.4;42.4
69198;BME280;56311;50.298;8.514;2023-06-05T08:06:00;98040.0;;;19.1;42.3
69198;BME280;56311;50.298;8.514;2023-06-05T08:08:00;98040.0;;;19.2;43.7
69198;BME280;56311;50.298;8.514;2023-06-05T08:10:00;98040.0;;;19.3;44.2
69198;BME280;56311;50.298;8.514;2023-06-05T08:12:00;98030.0;;;19.6;42.8
69198;BME280;56311;50.298;8.514;2023-06-05T08:14:00;98040.0;;;19.8;43.6
69198;BME280;56311;50.298;8.514;2023-06-05T08:16:00;98030.0;;;19.9;41.6
69198;BME280;56311;50.298;8.514;2023-06-05T08:18:01;98030.0;;;19.9;42.7
69198;BME280;56311;50.298;8.514;2023-06-05T08:20:00;98030.0;;;20.0;43.5
69198;BME280;56311;50.298;8.514;2023-06-05T08:22:00;98030.0;;;20.1;42.6
69198;BME280;56311;50.298;8.514;2023-06-05T08:24:00;98030.0;;;20.0;42.0
69198;BME280;56311;50.298;8.514;2023-06-05T08:26:01;98030.0;;;19.8;42.0
69198;BME280;56311;50.298;8.514;2023-06-05T08:28:00;98030.0;;;20.0;41.9
69198;BME280;56311;50.298;8.514;2023-06-05T08:30:00;98030.0;;;20.2;41.7
69198;BME280;56311;50.298;8.514;2023-06-05T08:32:00;98020.0;;;20.3;41.8
69198;BME280;56311;50.298;8.514;2023-06-05T08:34:00;98020.0;;;20.1;41.4
69198;BME280;56311;50.298;8.514;2023-06-05T08:36:00;98030.0;;;20.5;42.4
69198;BME280;56311;50.298;8.514;2023-06-05T08:38:02;98020.0;;;20.5;40.2
69198;BME280;56311;50.298;8.514;2023-06-05T08:40:00;98020.0;;;20.7;44.1
69198;BME280;56311;50.298;8.514;2023-06-05T08:42:01;98020.0;;;20.8;41.0
69198;BME280;56311;50.298;8.514;2023-06-05T08:44:00;98020.0;;;20.7;41.0
69198;BME280;56311;50.298;8.514;2023-06-05T08:46:00;98020.0;;;20.6;41.1
69198;BME280;56311;50.298;8.514;2023-06-05T08:48:00;98030.0;;;20.7;41.6
69198;BME280;56311;50.298;8.514;2023-06-05T08:50:02;98020.0;;;20.9;41.3
69198;BME280;56311;50.298;8.514;2023-06-05T08:52:02;98020.0;;;21.1;42.9
69198;BME280;56311;50.298;8.514;2023-06-05T08:54:03;98020.0;;;21.2;39.6
69198;BME280;56311;50.298;8.514;2023-06-05T08:56:01;98010.0;;;21.2;39.8
69198;BME280;56311;50.298;8.514;2023-06-05T08:58:00;98010.0;;;21.4;40.8
69198;BME280;56311;50.298;8.514;2023-06-05T09:00:04;98010.0;;;21.4;39.1
69198;BME280;56311;50.298;8.514;2023-06-05T09:02:00;98010.0;;;21.6;39.5
69198;BME280;56311;50.298;8.514;2023-06-05T09:04:01;98020.0;;;21.6;37.3
69198;BME280;56311;50.298;8.514;2023-06-05T09:06:00;98010.0;;;21.8;38.2
69198;BME280;56311;50.298;8.514;2023-06-05T09:08:00;98010.0;;;21.8;39.3
69198;BME280;56311;50.298;8.514;2023-06-05T09:10:00;98010.0;;;22.0;39.6
69198;BME280;56311;50.298;8.514;2023-06-05T09:12:02;98000.0;;;22.1;38.3
69198;BME280;56311;50.298;8.514;2023-06-05T09:14:01;98010.0;;;22.2;38.3
69198;BME280;56311;50.298;8.514;2023-06-05T09:16:00;98010.0;;;22.1;36.3
69198;BME280;56311;50.298;8.514;2023-06-05T09:18:09;98010.0;;;22.1;40.0
69198;BME280;56311;50.298;8.514;2023-06-05T09:20:00;98010.0;;;22.3;37.8
69198;BME280;56311;50.298;8.514;2023-06-05T09:22:01;98000.0;;;22.5;36.3
69198;BME280;56311;50.298;8.514;2023-06-05T09:24:12;98000.0;;;22.6;37.9
69198;BME280;56311;50.298;8.514;2023-06-05T09:26:00;98000.0;;;22.6;36.1
69198;BME280;56311;50.298;8.514;2023-06-05T09:28:07;97990.0;;;22.6;37.9
69198;BME280;56311;50.298;8.514;2023-06-05T09:30:02;98000.0;;;22.7;36.2
69198;BME280;56311;50.298;8.514;2023-06-05T09:32:02;98000.0;;;22.9;39.5
69198;BME280;56311;50.298;8.514;2023-06-05T09:34:00;98000.0;;;23.1;35.2
69198;BME280;56311;50.298;8.514;2023-06-05T09:36:05;97990.0;;;23.3;35.5
69198;BME280;56311;50.298;8.514;2023-06-05T09:38:00;97990.0;;;23.1;34.3
69198;BME280;56311;50.298;8.514;2023-06-05T09:40:00;98000.0;;;23.1;36.0
69198;BME280;56311;50.298;8.514;2023-06-05T09:42:01;97990.0;;;23.3;36.4
69198;BME280;56311;50.298;8.514;2023-06-05T09:44:06;97990.0;;;23.5;34.9
69198;BME280;56311;50.298;8.514;2023-06-05T09:46:06;97990.0;;;23.6;34.0
69198;BME280;56311;50.298;8.514;2023-06-05T09:48:12;97990.0;;;23.5;33.2
69198;BME280;56311;50.298;8.514;2023-06-05T09:50:00;97990.0;;;23.1;33.4
69198;BME280;56311;50.298;8.514;2023-06-05T09:52:01;97990.0;;;23.1;38.7
69198;BME280;56311;50.298;8.514;2023-06-05T09:54:02;97990.0;;;23.5;35.6
69198;BME280;56311;50.298;8.514;2023-06-05T09:56:01;97990.0;;;23.6;34.3
69198;BME280;56311;50.298;8.514;2023-06-05T09:58:04;97990.0;;;23.4;34.5
69198;BME280;56311;50.298;8.514;2023-06-05T10:00:02;97990.0;;;23.5;35.5
69198;BME280;56311;50.298;8.514;2023-06-05T10:02:02;97990.0;;;23.4;34.5
69198;BME280;56311;50.298;8.514;2023-06-05T10:04:05;97990.0;;;23.8;35.6
69198;BME280;56311;50.298;8.514;2023-06-05T10:06:01;97990.0;;;24.0;34.2
69198;BME280;56311;50.298;8.514;2023-06-05T10:08:00;97990.0;;;23.8;33.7
69198;BME280;56311;50.298;8.514;2023-06-05T10:10:01;97990.0;;;23.6;33.3
69198;BME280;56311;50.298;8.514;2023-06-05T10:12:01;97990.0;;;23.7;35.5
69198;BME280;56311;50.298;8.514;2023-06-05T10:14:02;97980.0;;;23.8;33.9
69198;BME280;56311;50.298;8.514;2023-06-05T10:16:01;97980.0;;;24.0;35.0
69198;BME280;56311;50.298;8.514;2023-06-05T10:18:00;97980.0;;;24.1;34.3
69198;BME280;56311;50.298;8.514;2023-06-05T10:20:01;97980.0;;;24.1;33.8
69198;BME280;56311;50.298;8.514;2023-06-05T10:22:00;97980.0;;;24.1;32.3
69198;BME280;56311;50.298;8.514;2023-06-05T10:24:04;97980.0;;;24.3;34.3
69198;BME280;56311;50.298;8.514;2023-06-05T10:26:02;97980.0;;;24.5;34.8
69198;BME280;56311;50.298;8.514;2023-06-05T10:28:14;97980.0;;;24.4;33.3
69198;BME280;56311;50.298;8.514;2023-06-05T10:32:02;97970.0;;;24.9;33.9
69198;BME280;56311;50.298;8.514;2023-06-05T10:34:06;97970.0;;;25.0;31.7
69198;BME280;56311;50.298;8.514;2023-06-05T10:36:08;97970.0;;;25.1;33.4
69198;BME280;56311;50.298;8.514;2023-06-05T10:38:10;97980.0;;;25.0;32.3
69198;BME280;56311;50.298;8.514;2023-06-05T10:40:00;97970.0;;;25.0;31.6
69198;BME280;56311;50.298;8.514;2023-06-05T10:42:00;97980.0;;;25.0;31.9
69198;BME280;56311;50.298;8.514;2023-06-05T10:44:00;97980.0;;;24.9;31.3
69198;BME280;56311;50.298;8.514;2023-06-05T10:46:01;97970.0;;;25.0;31.7
69198;BME280;56311;50.298;8.514;2023-06-05T10:48:00;97980.0;;;25.2;30.3
69198;BME280;56311;50.298;8.514;2023-06-05T10:50:18;97970.0;;;25.2;31.5
69198;BME280;56311;50.298;8.514;2023-06-05T10:52:00;97970.0;;;25.2;29.6
69198;BME280;56311;50.298;8.514;2023-06-05T10:54:00;97970.0;;;25.1;27.8
69198;BME280;56311;50.298;8.514;2023-06-05T10:56:00;97970.0;;;25.2;27.9
69198;BME280;56311;50.298;8.514;2023-06-05T10:58:04;97970.0;;;25.5;28.4
69198;BME280;56311;50.298;8.514;2023-06-05T11:00:05;97960.0;;;25.6;27.8
69198;BME280;56311;50.298;8.514;2023-06-05T11:04:00;97960.0;;;25.7;27.7
69198;BME280;56311;50.298;8.514;2023-06-05T11:06:10;97970.0;;;25.2;28.0
69198;BME280;56311;50.298;8.514;2023-06-05T11:08:10;97960.0;;;25.4;26.1